Kenai, AK

6:08 AM AKST on February 27, 2017 (GMT -0900)
Kenai Municipal | | Change Station

Elev 95 ft 60.57 °N, 151.25 °W | Updated 15 minutes ago

Overcast
Overcast
23 °F
Feels Like 23 °F
N
0
Wind Variable Wind from North

Today
High -- | Low -- °F
--% Chance of Precip.
Yesterday
High -- | Low -- °F
Precip. -- in
Pressure 30.04 in
Visibility 10.0 miles
Clouds Overcast 600 ft
Dew Point 22 °F
Humidity 96%
Rainfall 0.00 in
Snow Depth Not available.
8:08 AM 6:27 PM
New Moon, 1% visible
METAR PAEN 271453Z AUTO 00000KT 10SM OVC006 M05/M06 A3003 RMK AO2 SLP173 T10501056 58023 TSNO
Pressure 30.04 in
Visibility 10.0 miles
Clouds Overcast 600 ft
Dew Point 22 °F
Humidity 96%
Rainfall 0.00 in
Snow Depth Not available.
8:08 AM 6:27 PM
New Moon, 1% visible
METAR PAEN 271453Z AUTO 00000KT 10SM OVC006 M05/M06 A3003 RMK AO2 SLP173 T10501056 58023 TSNO

Get Your Daily Forecast Email!

Thanks for signing up!

Be on the lookout for a verification email in your inbox.

You'll start receiving the daily forecast at 8 AM.

×

10-Day Weather Forecast

Almanac

Astronomy

Feb. 27, 2017 Rise Set
Actual Time
Civil Twilight
Nautical Twilight
Astronomical Twilight
Moon
Length of Visible Light
Length of Day
Tomorrow will be .
, % of the Moon is Illuminated

Today's Extremes

State Highs State Lows

Community

WunderPhotos

Upload Photos

1,962,540 photos uploaded!

WunderBlog® & News

Nearby

Air Quality

  Air Quality AQ Index Pollutant
Not available.

Snow Depth

Station Depth Elevation

Earthquake Activity

City Distance Mag. Time & Date
Minimum magnitude displayed is 2.5.

Coastal Water Temperatures

Place Temperature

Stations

Nearby Weather Stations

Station Location Temp. Windchill Dew Point Humidity Wind Precip. Elev Updated Type
                   

Watches & Warnings

There are currently no watches in effect.